Time;durP1;ratioP1;P1;durP2;ratioP2;P2;SDS_P1;SDS_P2;PMS_P1;PMS_P2;Temp;Humidity;BMP_temperature;BMP_pressure;BME280_temperature;BME280_humidity;BME280_pressure;Samples;Min_cycle;Max_cycle;Signal;HPM_P1;HPM_P2
2023/01/19 00:00:14;;;;;;;;;16.00;12.67;;;;;5.22;100.00;100183.25;5073297;27;45321;-77
2023/01/19 00:02:46;;;;;;;;;22.00;16.67;;;;;5.22;100.00;100183.25;5095501;27;46548;-74
2023/01/19 00:05:12;;;;;;;;;18.33;15.00;;;;;5.32;100.00;100200.13;5074452;27;45465;-75
2023/01/19 00:07:37;;;;;;;;;18.00;16.00;;;;;5.29;100.00;100201.34;5091612;27;45615;-72
2023/01/19 00:10:03;;;;;;;;;23.33;17.33;;;;;5.26;100.00;100204.44;5090461;27;45425;-71
2023/01/19 00:12:29;;;;;;;;;24.33;17.00;;;;;5.28;100.00;100209.69;5071997;27;45498;-73
2023/01/19 00:14:54;;;;;;;;;24.67;21.00;;;;;5.32;100.00;100211.00;5090791;27;45498;-72
2023/01/19 00:17:20;;;;;;;;;19.33;17.33;;;;;5.33;100.00;100215.44;5101144;27;46546;-69
2023/01/19 00:19:45;;;;;;;;;17.00;15.67;;;;;5.26;100.00;100204.44;5094692;27;45738;-71
2023/01/19 00:22:10;;;;;;;;;22.33;18.67;;;;;5.29;100.00;100217.66;5096203;27;45927;-69
2023/01/19 00:24:36;;;;;;;;;25.67;22.67;;;;;5.24;100.00;100206.50;5077021;27;45993;-72
2023/01/19 00:27:02;;;;;;;;;18.00;12.00;;;;;5.20;100.00;100209.78;5095332;27;45832;-72
2023/01/19 00:29:32;;;;;;;;;25.00;19.67;;;;;5.02;100.00;100194.69;5094757;27;45505;-71
2023/01/19 00:32:02;;;;;;;;;21.00;17.00;;;;;5.11;100.00;100207.16;5096613;27;45569;-71
2023/01/19 00:34:35;;;;;;;;;17.67;17.67;;;;;5.08;100.00;100210.25;5079820;27;45938;-71
2023/01/19 00:37:07;;;;;;;;;22.33;18.33;;;;;5.07;100.00;100211.25;5078619;27;47397;-71
2023/01/19 00:39:33;;;;;;;;;18.33;17.00;;;;;5.06;100.00;100219.59;5072970;27;45760;-72
2023/01/19 00:44:44;;;;;;;;;18.67;14.67;;;;;5.02;100.00;100211.00;5088462;27;45473;-73
2023/01/19 00:47:09;;;;;;;;;18.67;17.67;;;;;5.06;100.00;100220.47;5075506;27;46237;-72
2023/01/19 00:49:35;;;;;;;;;17.67;15.33;;;;;5.04;100.00;100219.78;5107223;27;45381;-71
2023/01/19 00:52:00;;;;;;;;;19.00;16.33;;;;;5.03;100.00;100211.81;5098169;27;45624;-72
2023/01/19 00:54:26;;;;;;;;;17.00;14.33;;;;;5.03;100.00;100214.53;5103691;27;45425;-73
2023/01/19 00:56:51;;;;;;;;;17.67;11.00;;;;;5.07;100.00;100230.28;5099645;27;45795;-73
2023/01/19 00:59:16;;;;;;;;;14.67;13.00;;;;;5.02;100.00;100229.19;5096726;27;45915;-73
2023/01/19 01:01:42;;;;;;;;;10.67;9.67;;;;;4.94;100.00;100238.25;5091937;27;45716;-72
2023/01/19 01:04:07;;;;;;;;;16.00;15.00;;;;;4.92;100.00;100245.75;5072293;27;45989;-74
2023/01/19 01:06:33;;;;;;;;;18.67;14.33;;;;;4.88;100.00;100245.28;5090706;27;45930;-74
2023/01/19 01:08:58;;;;;;;;;20.00;12.67;;;;;4.81;100.00;100229.91;5069512;27;45932;-72
2023/01/19 01:11:24;;;;;;;;;12.00;11.00;;;;;4.92;100.00;100253.88;5094966;27;45474;-73
2023/01/19 01:13:49;;;;;;;;;19.00;17.00;;;;;4.90;100.00;100255.97;5101226;27;45730;-73
2023/01/19 01:16:15;;;;;;;;;12.33;10.67;;;;;4.81;100.00;100252.47;5095459;27;45631;-72
2023/01/19 01:18:42;;;;;;;;;16.00;11.33;;;;;4.86;100.00;100260.91;5102646;27;45727;-72
2023/01/19 01:21:08;;;;;;;;;18.00;13.00;;;;;4.88;100.00;100253.44;5078309;27;45469;-72
2023/01/19 01:23:34;;;;;;;;;16.67;12.00;;;;;4.78;100.00;100241.97;5093502;27;45773;-72
2023/01/19 01:26:00;;;;;;;;;11.67;11.00;;;;;4.88;100.00;100255.28;5074816;27;47007;-72
2023/01/19 01:28:25;;;;;;;;;16.00;12.33;;;;;4.83;100.00;100249.56;5093543;27;45512;-72
2023/01/19 01:30:55;;;;;;;;;19.00;14.67;;;;;4.77;100.00;100260.16;5098402;27;45926;-73
2023/01/19 01:33:22;;;;;;;;;26.67;17.33;;;;;4.79;100.00;100265.41;5072424;27;46463;-72
2023/01/19 01:35:48;;;;;;;;;17.00;15.67;;;;;4.79;100.00;100270.84;5092257;27;45414;-72
2023/01/19 01:38:14;;;;;;;;;18.00;15.00;;;;;4.82;100.00;100270.47;5077011;27;45487;-72
2023/01/19 01:40:40;;;;;;;;;14.33;11.00;;;;;4.85;100.00;100282.81;5035780;27;45799;-72
2023/01/19 01:43:11;;;;;;;;;14.00;11.00;;;;;4.87;100.00;100278.06;5056243;28;45938;-69
2023/01/19 01:45:38;;;;;;;;;12.00;12.00;;;;;4.86;100.00;100276.38;5055288;27;46357;-72
2023/01/19 01:48:17;;;;;;;;;20.67;15.67;;;;;4.98;100.00;100296.63;5066450;27;45588;-72
2023/01/19 01:51:24;;;;;;;;;12.33;11.67;;;;;4.97;100.00;100299.53;5052253;27;45750;-72
2023/01/19 01:54:00;;;;;;;;;14.67;12.00;;;;;4.93;100.00;100297.19;5068380;27;45747;-73
2023/01/19 01:56:33;;;;;;;;;17.00;13.33;;;;;4.88;100.00;100290.59;5068197;27;45558;-73
2023/01/19 01:59:03;;;;;;;;;13.00;9.00;;;;;4.92;100.00;100300.09;5057521;28;45437;-70
2023/01/19 02:04:12;;;;;;;;;15.67;12.67;;;;;4.93;100.00;100301.78;5067004;27;45743;-72
2023/01/19 02:14:54;;;;;;;;;16.33;14.33;;;;;4.80;100.00;100296.13;5060769;27;45788;-70
2023/01/19 02:17:20;;;;;;;;;17.00;12.33;;;;;4.81;100.00;100297.81;5046843;28;47051;-72
2023/01/19 02:19:46;;;;;;;;;12.67;11.67;;;;;4.74;100.00;100306.66;5072764;27;45620;-72
2023/01/19 02:22:34;;;;;;;;;12.67;11.00;;;;;4.73;100.00;100306.84;5073202;27;45558;-73
2023/01/19 02:25:03;;;;;;;;;14.33;12.33;;;;;4.65;100.00;100304.22;5042597;28;45677;-72
2023/01/19 02:27:28;;;;;;;;;12.00;11.00;;;;;4.64;100.00;100313.38;5067472;27;45396;-73
2023/01/19 02:29:54;;;;;;;;;17.67;15.33;;;;;4.60;100.00;100313.75;5071091;27;45473;-72
2023/01/19 02:32:19;;;;;;;;;16.00;12.00;;;;;4.55;100.00;100312.59;5065125;27;45312;-72
2023/01/19 02:34:45;;;;;;;;;14.67;11.67;;;;;4.52;100.00;100307.50;5051992;28;45882;-71
2023/01/19 02:37:14;;;;;;;;;16.67;13.00;;;;;4.53;100.00;100310.03;5052974;27;46365;-72
2023/01/19 02:39:55;;;;;;;;;16.67;11.33;;;;;4.62;100.00;100310.00;5096509;27;45401;-72
2023/01/19 02:42:33;;;;;;;;;17.33;15.00;;;;;4.58;100.00;100312.22;5083307;27;45826;-70
2023/01/19 02:45:05;;;;;;;;;13.67;12.00;;;;;4.38;100.00;100282.00;5103505;27;46056;-72
2023/01/19 02:47:37;;;;;;;;;10.67;10.00;;;;;4.53;100.00;100309.22;5101181;27;45753;-72
2023/01/19 02:50:03;;;;;;;;;12.67;12.33;;;;;4.52;100.00;100307.50;5090718;27;45997;-73
2023/01/19 02:52:30;;;;;;;;;14.33;13.00;;;;;4.55;100.00;100305.31;5086260;27;45787;-71
2023/01/19 02:55:14;;;;;;;;;16.00;15.00;;;;;4.59;100.00;100301.16;5089041;27;45914;-73
2023/01/19 02:58:04;;;;;;;;;18.00;16.00;;;;;4.62;100.00;100308.13;5087066;27;45670;-73
2023/01/19 03:00:45;;;;;;;;;11.67;9.67;;;;;4.64;100.00;100300.66;5065277;27;45811;-74
2023/01/19 03:03:37;;;;;;;;;16.00;12.67;;;;;4.72;100.00;100306.00;5089794;27;45513;-72
2023/01/19 03:06:13;;;;;;;;;22.33;16.00;;;;;4.63;100.00;100296.25;5079808;27;45761;-72
2023/01/19 03:08:50;;;;;;;;;17.67;15.33;;;;;4.62;100.00;100297.25;5072055;27;47827;-73
2023/01/19 03:11:16;;;;;;;;;20.67;17.00;;;;;4.58;100.00;100301.34;5057827;28;45549;-72
2023/01/19 03:13:53;;;;;;;;;15.33;13.33;;;;;4.59;100.00;100301.16;5099561;27;45459;-71
2023/01/19 03:16:36;;;;;;;;;16.00;13.33;;;;;4.58;100.00;100295.91;5074383;27;46325;-74
2023/01/19 03:19:08;;;;;;;;;11.33;10.67;;;;;4.54;100.00;100298.16;5092761;27;46160;-73
2023/01/19 03:21:36;;;;;;;;;21.67;16.33;;;;;4.54;100.00;100300.06;5101839;27;45564;-72
2023/01/19 03:24:05;;;;;;;;;18.67;17.00;;;;;4.49;100.00;100300.59;5064550;27;45768;-72
2023/01/19 03:26:37;;;;;;;;;19.67;16.33;;;;;4.41;100.00;100285.19;5082669;27;46203;-73
2023/01/19 03:29:07;;;;;;;;;28.67;18.33;;;;;4.54;100.00;100294.63;5092143;27;48366;-72
2023/01/19 03:31:35;;;;;;;;;19.75;18.25;;;;;4.60;100.00;100294.72;5090723;27;45402;-73
2023/01/19 03:34:07;;;;;;;;;27.00;19.50;;;;;4.68;100.00;100295.69;5074777;27;45733;-73
2023/01/19 03:36:42;;;;;;;;;25.67;19.33;;;;;4.68;100.00;100301.97;5077896;27;45848;-72
2023/01/19 03:39:09;;;;;;;;;19.67;16.00;;;;;4.67;100.00;100307.56;5094067;27;45565;-73
2023/01/19 03:41:39;;;;;;;;;17.67;16.67;;;;;4.71;100.00;100301.59;5113732;27;45717;-72
2023/01/19 03:44:06;;;;;;;;;28.33;20.00;;;;;4.71;100.00;100301.59;5077449;27;45650;-73
2023/01/19 03:46:32;;;;;;;;;16.67;15.67;;;;;4.70;100.00;100299.06;5084321;27;46752;-73
2023/01/19 03:48:58;;;;;;;;;22.33;19.33;;;;;4.75;100.00;100305.66;5091395;27;45763;-72
2023/01/19 03:51:25;;;;;;;;;20.67;17.33;;;;;4.81;100.00;100303.25;5104295;27;45761;-72
2023/01/19 03:53:50;;;;;;;;;19.00;18.67;;;;;4.85;100.00;100301.84;5107458;27;45397;-70
2023/01/19 03:56:17;;;;;;;;;17.33;17.33;;;;;4.90;100.00;100313.84;5094030;27;45759;-71
2023/01/19 03:58:43;;;;;;;;;17.00;12.00;;;;;4.81;100.00;100293.22;5095657;27;46165;-73
2023/01/19 04:01:08;;;;;;;;;18.00;15.67;;;;;4.92;100.00;100305.50;5084089;27;45481;-72
2023/01/19 04:03:34;;;;;;;;;22.33;20.00;;;;;4.94;100.00;100311.63;5095822;27;45702;-71
2023/01/19 04:05:59;;;;;;;;;17.67;17.67;;;;;4.94;100.00;100308.91;5092671;27;45780;-73
2023/01/19 04:08:25;;;;;;;;;24.00;22.00;;;;;4.96;100.00;100312.28;5094440;27;45892;-74
2023/01/19 04:10:50;;;;;;;;;18.67;17.33;;;;;4.94;100.00;100314.34;5074775;27;45750;-71
2023/01/19 04:13:16;;;;;;;;;18.00;16.33;;;;;4.92;100.00;100310.94;5073353;27;45722;-73
2023/01/19 04:15:41;;;;;;;;;16.33;15.33;;;;;4.87;100.00;100316.09;5049081;28;46551;-71
2023/01/19 04:18:07;;;;;;;;;18.00;17.00;;;;;4.86;100.00;100311.69;5086876;27;45651;-73
2023/01/19 04:20:33;;;;;;;;;17.67;15.00;;;;;4.82;100.00;100304.91;5093757;27;45409;-72
2023/01/19 04:22:59;;;;;;;;;15.67;13.67;;;;;4.77;100.00;100308.19;5093841;27;45428;-72
2023/01/19 04:25:26;;;;;;;;;13.33;10.33;;;;;4.63;100.00;100304.38;5094244;27;45501;-72
2023/01/19 04:27:53;;;;;;;;;15.33;13.67;;;;;4.66;100.00;100311.34;5090869;27;47005;-72
2023/01/19 04:30:19;;;;;;;;;16.00;14.33;;;;;4.59;100.00;100301.16;5082751;27;45920;-71
2023/01/19 04:32:44;;;;;;;;;17.00;16.00;;;;;4.54;100.00;100300.88;5101972;27;45506;-71
2023/01/19 04:35:10;;;;;;;;;17.33;14.33;;;;;4.55;100.00;100307.16;5074778;27;47519;-73
2023/01/19 04:37:35;;;;;;;;;20.00;15.67;;;;;4.55;100.00;100312.59;5086205;27;46862;-71
2023/01/19 04:40:01;;;;;;;;;23.67;18.33;;;;;4.49;100.00;100303.31;5072535;27;45922;-71
2023/01/19 04:42:26;;;;;;;;;17.67;17.67;;;;;4.40;100.00;100302.50;5072639;27;45398;-70
2023/01/19 04:44:52;;;;;;;;;23.67;17.00;;;;;4.39;100.00;100305.41;5088613;27;45280;-71
2023/01/19 04:47:18;;;;;;;;;18.33;15.33;;;;;4.36;100.00;100309.31;5074786;27;47264;-72
2023/01/19 04:49:45;;;;;;;;;19.25;15.50;;;;;4.29;100.00;100308.34;5089195;27;45784;-73
2023/01/19 04:52:10;;;;;;;;;14.67;11.33;;;;;4.16;100.00;100299.94;5095291;27;45730;-74
2023/01/19 04:54:39;;;;;;;;;12.67;12.67;;;;;4.12;100.00;100315.72;5083606;27;45806;-73
2023/01/19 04:57:04;;;;;;;;;12.00;11.67;;;;;4.09;100.00;100312.50;5076738;27;46845;-72
2023/01/19 04:59:30;;;;;;;;;13.67;13.00;;;;;4.09;100.00;100320.66;5087429;27;45734;-71
2023/01/19 05:01:56;;;;;;;;;22.33;17.67;;;;;4.02;100.00;100302.38;5085242;27;45568;-73
2023/01/19 05:04:21;;;;;;;;;21.33;15.00;;;;;4.00;100.00;100309.03;5069459;27;45352;-72
2023/01/19 05:06:47;;;;;;;;;19.33;16.00;;;;;3.91;100.00;100312.75;5091951;27;45709;-71
2023/01/19 05:09:14;;;;;;;;;20.67;20.00;;;;;3.79;100.00;100315.03;5099435;27;45373;-73
2023/01/19 05:11:40;;;;;;;;;18.33;13.67;;;;;3.61;100.00;100298.97;5095673;27;45535;-73
2023/01/19 05:14:06;;;;;;;;;21.67;16.00;;;;;3.60;100.00;100317.13;5090414;27;45759;-73
2023/01/19 05:16:32;;;;;;;;;15.25;12.50;;;;;3.45;100.00;100300.72;5076024;27;45983;-72
2023/01/19 05:18:57;;;;;;;;;16.67;13.67;;;;;3.35;100.00;100294.66;5093649;27;45808;-72
2023/01/19 05:21:23;;;;;;;;;20.00;15.67;;;;;3.32;100.00;100312.13;5094421;27;45979;-73
2023/01/19 05:23:48;;;;;;;;;17.00;16.67;;;;;3.23;100.00;100317.72;5095965;27;45477;-74
2023/01/19 05:26:14;;;;;;;;;18.00;15.00;;;;;3.09;100.00;100303.00;5094749;27;46512;-73
2023/01/19 05:28:39;;;;;;;;;24.00;19.25;;;;;3.06;100.00;100316.91;5093511;27;45444;-72
2023/01/19 05:31:04;;;;;;;;;15.75;14.75;;;;;3.03;100.00;100318.06;5093476;27;45667;-74
2023/01/19 05:33:30;;;;;;;;;18.75;14.00;;;;;2.96;100.00;100311.63;5074085;27;45950;-72
2023/01/19 05:35:55;;;;;;;;;15.50;11.50;;;;;2.90;100.00;100318.56;5098828;27;46572;-73
2023/01/19 05:38:21;;;;;;;;;24.75;15.00;;;;;2.83;100.00;100306.75;5083706;27;45853;-73
2023/01/19 05:40:47;;;;;;;;;17.00;15.25;;;;;2.73;100.00;100301.50;5088875;27;45603;-71
2023/01/19 05:43:14;;;;;;;;;13.00;11.00;;;;;2.73;100.00;100306.91;5074526;27;45868;-72
2023/01/19 05:45:40;;;;;;;;;16.50;13.25;;;;;2.69;100.00;100310.13;5056036;27;46251;-74
2023/01/19 05:48:08;;;;;;;;;18.50;16.00;;;;;2.64;100.00;100311.47;5063964;27;45541;-74
2023/01/19 05:50:34;;;;;;;;;24.00;19.50;;;;;2.61;100.00;100314.50;5073578;27;45791;-74
2023/01/19 05:53:00;;;;;;;;;20.00;16.50;;;;;2.57;100.00;100317.72;5063502;27;45961;-71
2023/01/19 05:55:26;;;;;;;;;20.75;12.00;;;;;2.53;100.00;100317.22;5057501;27;46716;-72
2023/01/19 05:57:52;;;;;;;;;16.00;12.75;;;;;2.53;100.00;100321.75;5093860;27;45472;-71
2023/01/19 06:00:18;;;;;;;;;19.25;17.25;;;;;2.54;100.00;100324.31;5072560;27;45391;-72
2023/01/19 06:02:45;;;;;;;;;19.75;17.50;;;;;2.48;100.00;100311.44;5076748;27;45854;-78
2023/01/19 06:05:10;;;;;;;;;17.75;15.50;;;;;2.45;100.00;100303.66;5093943;27;45561;-73
2023/01/19 06:07:36;;;;;;;;;14.75;14.75;;;;;2.46;100.00;100302.66;5088345;27;45728;-73
2023/01/19 06:10:03;;;;;;;;;16.25;13.50;;;;;2.41;100.00;100296.88;5097022;27;45557;-78
2023/01/19 06:12:28;;;;;;;;;20.00;14.75;;;;;2.63;100.00;100322.47;5086091;27;46575;-76
2023/01/19 06:14:54;;;;;;;;;18.25;14.50;;;;;2.69;100.00;100316.38;5094458;27;46030;-75
2023/01/19 06:17:19;;;;;;;;;17.25;13.50;;;;;2.58;100.00;100297.75;5072323;27;45954;-77
2023/01/19 06:19:45;;;;;;;;;19.00;14.25;;;;;2.67;100.00;100298.63;5048859;27;45699;-78
2023/01/19 06:22:11;;;;;;;;;23.00;14.00;;;;;2.85;100.00;100314.69;5098296;27;45771;-77
2023/01/19 06:24:37;;;;;;;;;26.25;15.25;;;;;2.72;100.00;100299.78;5086237;27;47062;-77
2023/01/19 06:27:05;;;;;;;;;18.75;16.00;;;;;2.94;100.00;100329.94;5070303;27;45747;-76
2023/01/19 06:29:31;;;;;;;;;14.25;14.00;;;;;2.88;100.00;100315.19;5086088;27;45374;-77
2023/01/19 06:31:56;;;;;;;;;12.75;12.75;;;;;2.92;100.00;100329.22;5094767;27;45964;-78
2023/01/19 06:35:09;;;;;;;;;;;;;;;;;;;;;
2023/01/19 06:37:37;;;;;;;;;17.75;12.25;;;;;2.82;100.00;100308.59;5074267;27;72128;-76
2023/01/19 06:40:02;;;;;;;;;13.00;11.75;;;;;2.97;100.00;100341.25;5093026;27;45512;-76
2023/01/19 06:42:28;;;;;;;;;13.00;13.00;;;;;2.87;100.00;100324.31;5089772;27;45869;-77
2023/01/19 06:44:53;;;;;;;;;15.00;13.25;;;;;3.05;100.00;100347.69;5093030;27;45503;-80
2023/01/19 06:47:19;;;;;;;;;17.00;12.00;;;;;2.85;100.00;100315.53;5095240;27;45734;-76
2023/01/19 06:49:44;;;;;;;;;10.25;10.25;;;;;2.94;100.00;100340.75;5098382;27;45497;-77
2023/01/19 06:52:12;;;;;;;;;19.00;11.50;;;;;2.87;100.00;100340.56;5084390;27;45689;-74
2023/01/19 06:54:38;;;;;;;;;22.50;18.25;;;;;2.78;100.00;100344.31;5103726;27;47266;-74
2023/01/19 06:57:03;;;;;;;;;14.00;8.00;;;;;2.76;100.00;100354.47;5093950;27;45401;-75
2023/01/19 06:59:29;;;;;;;;;19.00;12.50;;;;;2.70;100.00;100347.84;5092640;27;45877;-78
2023/01/19 07:01:57;;;;;;;;;14.00;13.00;;;;;2.69;100.00;100353.44;5083819;27;45873;-74
2023/01/19 07:04:23;;;;;;;;;15.75;13.00;;;;;2.61;100.00;100340.75;5078881;27;45651;-74
2023/01/19 07:06:49;;;;;;;;;13.33;11.33;;;;;2.67;100.00;100355.47;5072390;27;46391;-77
2023/01/19 07:09:15;;;;;;;;;16.00;10.75;;;;;2.58;100.00;100350.03;5091472;27;45536;-78
2023/01/19 07:11:41;;;;;;;;;15.00;11.00;;;;;2.57;100.00;100350.19;5073609;27;47195;-78
2023/01/19 07:14:07;;;;;;;;;14.00;10.50;;;;;2.43;100.00;100330.88;5095238;27;46610;-75
2023/01/19 07:16:32;;;;;;;;;15.00;12.75;;;;;2.56;100.00;100348.50;5088000;27;45868;-76
2023/01/19 07:18:58;;;;;;;;;16.50;11.25;;;;;2.51;100.00;100345.47;5093946;27;45388;-77
2023/01/19 07:21:23;;;;;;;;;15.00;11.75;;;;;2.46;100.00;100337.84;5088359;27;45798;-74
2023/01/19 07:23:52;;;;;;;;;16.50;14.25;;;;;2.49;100.00;100337.50;5097816;27;46053;-74
2023/01/19 07:26:20;;;;;;;;;12.00;8.75;;;;;2.49;100.00;100342.91;5088804;27;45920;-80
2023/01/19 07:28:46;;;;;;;;;13.50;11.00;;;;;2.49;100.00;100350.19;5073697;27;45534;-82
2023/01/19 07:31:12;;;;;;;;;12.75;11.75;;;;;2.38;100.00;100335.97;5080835;27;45989;-79
2023/01/19 07:33:37;;;;;;;;;6.00;4.50;;;;;2.41;100.00;100334.75;5088416;27;46830;-77
2023/01/19 07:36:03;;;;;;;;;14.50;14.50;;;;;2.50;100.00;100350.03;5091140;27;45798;-77
2023/01/19 07:38:28;;;;;;;;;16.25;9.75;;;;;2.53;100.00;100347.00;5089453;27;45754;-75
2023/01/19 07:41:05;;;;;;;;;19.50;13.75;;;;;2.56;100.00;100351.19;5089625;27;46830;-75
2023/01/19 07:43:32;;;;;;;;;15.50;12.75;;;;;2.50;100.00;100331.09;5097116;27;47382;-79
2023/01/19 07:46:02;;;;;;;;;15.25;13.75;;;;;2.62;100.00;100354.09;5093340;27;45854;-77
2023/01/19 07:48:28;;;;;;;;;20.00;16.50;;;;;2.56;100.00;100335.84;5102877;27;45908;-75
2023/01/19 07:50:59;;;;;;;;;23.25;21.00;;;;;2.74;100.00;100356.47;5093692;27;46405;-77
2023/01/19 07:53:25;;;;;;;;;23.50;21.75;;;;;2.74;100.00;100345.66;5070686;27;47756;-77
2023/01/19 07:55:56;;;;;;;;;17.50;13.75;;;;;2.86;100.00;100366.00;5062202;27;45822;-80
2023/01/19 07:58:30;;;;;;;;;16.25;14.75;;;;;2.94;100.00;100371.41;5098085;27;45703;-80
2023/01/19 08:00:56;;;;;;;;;15.75;13.75;;;;;2.96;100.00;100361.25;5086968;28;45724;-80
2023/01/19 08:03:22;;;;;;;;;16.50;13.50;;;;;2.91;100.00;100341.09;5084252;28;47062;-78
2023/01/19 08:05:51;;;;;;;;;15.00;12.75;;;;;3.02;100.00;100354.28;5092396;27;44871;-81
2023/01/19 08:08:18;;;;;;;;;18.25;14.25;;;;;3.14;100.00;100373.78;5111126;27;45223;-80
2023/01/19 08:10:44;;;;;;;;;18.00;10.50;;;;;2.99;100.00;100344.66;5099557;27;45745;-80
2023/01/19 08:13:09;;;;;;;;;18.50;18.00;;;;;3.28;100.00;100380.34;5110008;27;45453;-79
2023/01/19 08:15:35;;;;;;;;;18.25;14.00;;;;;3.36;100.00;100377.66;5100128;27;45652;-81
2023/01/19 08:18:04;;;;;;;;;15.25;14.25;;;;;3.47;100.00;100385.47;5105696;27;45399;-78
2023/01/19 08:20:31;;;;;;;;;16.50;14.25;;;;;3.56;100.00;100380.84;5109449;27;45427;-78
2023/01/19 08:23:01;;;;;;;;;22.50;20.25;;;;;3.60;100.00;100376.78;5108067;27;45470;-79
2023/01/19 08:25:44;;;;;;;;;11.33;11.33;;;;;3.74;100.00;100385.22;5108535;27;44932;-79
2023/01/19 08:28:12;;;;;;;;;12.50;10.75;;;;;3.79;100.00;100370.13;5107985;27;45458;-78
2023/01/19 08:30:42;;;;;;;;;13.75;13.25;;;;;3.92;100.00;100372.28;5110087;27;45587;-81
2023/01/19 08:33:07;;;;;;;;;14.67;13.00;;;;;4.02;100.00;100372.91;5077337;27;46196;-78
2023/01/19 08:35:36;;;;;;;;;12.67;10.00;;;;;4.16;100.00;100375.91;5105481;27;45510;-79
2023/01/19 08:38:02;;;;;;;;;10.33;9.67;;;;;4.29;100.00;100369.94;5088426;27;45474;-78
2023/01/19 08:40:29;;;;;;;;;8.00;8.00;;;;;4.45;100.00;100374.44;5111551;27;45575;-78
2023/01/19 08:43:03;;;;;;;;;12.00;10.00;;;;;4.64;100.00;100373.13;5108911;27;45467;-80
2023/01/19 08:45:29;;;;;;;;;11.33;10.33;;;;;4.83;100.00;100369.94;5087234;27;45546;-79
2023/01/19 08:47:57;;;;;;;;;14.50;12.50;;;;;4.98;100.00;100370.00;5108187;27;44942;-81
2023/01/19 08:50:24;;;;;;;;;10.00;9.33;;;;;5.20;100.00;100383.78;5091293;27;44808;-79
2023/01/19 08:52:50;;;;;;;;;15.00;9.67;;;;;5.24;100.00;100360.59;5112368;27;45502;-79
2023/01/19 08:55:16;;;;;;;;;4.00;4.00;;;;;5.40;100.00;100371.34;5097039;27;45739;-77
2023/01/19 08:57:42;;;;;;;;;11.33;10.67;;;;;5.58;100.00;100379.16;5112193;27;45464;-79
2023/01/19 09:00:09;;;;;;;;;16.00;11.00;;;;;5.72;100.00;100379.34;5105914;27;45760;-79
2023/01/19 09:02:36;;;;;;;;;14.00;12.33;;;;;5.78;100.00;100392.25;5090775;27;47524;-77
2023/01/19 09:05:24;;;;;;;;;11.67;11.00;;;;;5.81;100.00;100389.97;5106562;27;45446;-89
2023/01/19 09:07:50;;;;;;;;;18.00;12.00;;;;;5.73;100.00;100351.13;5098866;27;45863;-82
2023/01/19 09:10:19;;;;;;;;;14.00;10.67;;;;;6.09;100.00;100383.06;5101163;27;45529;-77
2023/01/19 09:12:45;;;;;;;;;12.67;11.67;;;;;6.21;100.00;100388.88;5103928;27;46474;-79
2023/01/19 09:15:12;;;;;;;;;11.00;11.00;;;;;6.32;100.00;100385.69;5105233;27;45152;-78
2023/01/19 09:17:39;;;;;;;;;13.00;10.33;;;;;6.27;100.00;100377.22;5084779;27;45364;-77
2023/01/19 09:20:06;;;;;;;;;12.67;9.00;;;;;6.41;100.00;100387.28;5095319;27;45510;-78
2023/01/19 09:22:32;;;;;;;;;11.00;11.00;;;;;6.51;100.00;100382.38;5087108;27;46128;-77
2023/01/19 09:24:57;;;;;;;;;16.67;13.00;;;;;6.57;100.00;100385.34;5107550;27;45521;-78
2023/01/19 09:27:23;;;;;;;;;16.67;11.67;;;;;6.60;100.00;100388.56;5108589;27;45434;-78
2023/01/19 09:29:51;;;;;;;;;18.00;15.33;;;;;6.62;100.00;100374.75;5106467;27;45501;-78
2023/01/19 09:32:18;;;;;;;;;14.33;13.00;;;;;6.66;100.00;100385.06;5107497;27;45005;-76
2023/01/19 09:34:44;;;;;;;;;8.67;7.67;;;;;6.53;100.00;100380.28;5086534;27;44899;-78
2023/01/19 09:37:09;;;;;;;;;12.33;12.00;;;;;6.46;100.00;100386.69;5087457;27;45532;-77
2023/01/19 09:39:35;;;;;;;;;22.00;14.33;;;;;6.34;100.00;100370.00;5105396;27;45698;-79
2023/01/19 09:42:17;;;;;;;;;9.00;7.00;;;;;6.39;100.00;100385.75;5098552;27;45429;-77
2023/01/19 09:44:46;;;;;;;;;13.00;10.00;;;;;6.36;100.00;100382.41;5086818;27;45437;-78
2023/01/19 09:47:18;;;;;;;;;10.67;10.00;;;;;6.47;100.00;100389.22;5091394;27;45400;-76
2023/01/19 09:50:03;;;;;;;;;14.00;14.00;;;;;6.60;100.00;100395.88;5098567;27;45780;-77
2023/01/19 09:52:33;;;;;;;;;16.33;13.67;;;;;6.72;100.00;100381.56;5106326;27;45481;-77
2023/01/19 09:54:58;;;;;;;;;13.00;13.00;;;;;6.68;100.00;100379.41;5089881;27;45471;-76
2023/01/19 09:57:29;;;;;;;;;18.00;12.67;;;;;6.82;100.00;100386.69;5085847;28;45404;-78
2023/01/19 09:59:58;;;;;;;;;11.67;11.33;;;;;6.91;100.00;100392.03;5120725;27;45928;-78
2023/01/19 10:02:29;;;;;;;;;19.33;11.33;;;;;7.05;100.00;100399.28;5100651;27;45113;-77
2023/01/19 10:05:13;;;;;;;;;16.67;14.33;;;;;7.20;100.00;100394.63;5106294;27;45199;-79
2023/01/19 10:08:00;;;;;;;;;11.00;11.00;;;;;7.35;100.00;100401.88;5095540;27;45394;-77
2023/01/19 10:10:28;;;;;;;;;12.33;12.00;;;;;7.41;100.00;100401.94;5088909;27;45989;-76
2023/01/19 10:12:56;;;;;;;;;16.00;14.33;;;;;7.41;100.00;100401.94;5099614;27;45484;-78
2023/01/19 10:15:36;;;;;;;;;14.33;13.00;;;;;7.49;100.00;100398.22;5108171;27;45527;-77
2023/01/19 10:18:19;;;;;;;;;13.67;12.33;;;;;7.45;100.00;100396.94;5092364;27;45508;-78
2023/01/19 10:21:12;;;;;;;;;19.00;17.67;;;;;7.62;100.00;100399.38;5087586;27;46166;-75
2023/01/19 10:23:42;;;;;;;;;16.00;13.67;;;;;7.69;100.00;100397.53;5108371;27;45602;-75
2023/01/19 10:26:21;;;;;;;;;14.67;13.67;;;;;7.50;100.00;100383.56;5081696;27;45991;-77
2023/01/19 10:28:50;;;;;;;;;18.33;15.67;;;;;7.64;100.00;100400.88;5099532;27;45527;-75
2023/01/19 10:31:22;;;;;;;;;20.67;14.67;;;;;7.66;100.00;100396.03;5098181;27;45573;-75
2023/01/19 10:33:49;;;;;;;;;18.33;16.00;;;;;7.66;100.00;100389.75;5107067;27;46001;-75
2023/01/19 10:36:19;;;;;;;;;22.00;20.67;;;;;7.66;100.00;100392.47;5102907;27;45659;-74
2023/01/19 10:38:46;;;;;;;;;23.67;19.33;;;;;7.63;100.00;100392.88;5079140;27;45440;-75
2023/01/19 10:44:31;;;;;;;;;66.00;47.50;;;;;7.70;100.00;100382.84;5082451;27;45772;-75
2023/01/19 10:46:59;;;;;;;;;25.00;19.00;;;;;7.76;100.00;100379.31;5095984;27;45982;-75
2023/01/19 10:49:45;;;;;;;;;33.33;28.33;;;;;7.92;100.00;100380.91;5100229;27;45749;-76
2023/01/19 10:52:27;;;;;;;;;38.00;28.67;;;;;8.00;100.00;100378.00;5089144;27;45998;-76
2023/01/19 10:54:54;;;;;;;;;31.67;28.00;;;;;8.00;100.00;100388.09;5074705;27;47325;-75
2023/01/19 10:57:28;;;;;;;;;25.67;21.67;;;;;8.03;100.00;100374.03;5070239;27;45853;-75
2023/01/19 10:59:53;;;;;;;;;39.67;33.00;;;;;8.04;100.00;100356.59;5086200;27;45724;-77
2023/01/19 11:02:30;;;;;;;;;33.00;26.00;;;;;8.15;100.00;100363.38;5097521;27;45795;-75
2023/01/19 11:04:58;;;;;;;;;23.00;21.67;;;;;8.24;100.00;100367.63;5091668;27;48122;-78
2023/01/19 11:07:28;;;;;;;;;24.33;21.00;;;;;8.27;100.00;100362.59;5095364;27;45473;-84
2023/01/19 11:10:15;;;;;;;;;15.33;13.00;;;;;8.34;100.00;100359.03;5109997;27;44833;-82
2023/01/19 11:12:43;;;;;;;;;27.33;23.00;;;;;8.35;100.00;100349.81;5093261;27;45624;-83
2023/01/19 11:15:13;;;;;;;;;26.00;23.00;;;;;8.30;100.00;100345.78;5111483;27;46514;-82
2023/01/19 11:17:45;;;;;;;;;21.00;17.67;;;;;8.37;100.00;100356.75;5110479;27;45793;-84
2023/01/19 11:20:22;;;;;;;;;44.25;36.50;;;;;8.36;100.00;100354.22;5110687;27;45862;-83
2023/01/19 11:23:06;;;;;;;;;32.33;28.33;;;;;8.37;100.00;100344.97;5117954;27;45223;-83
2023/01/19 11:25:34;;;;;;;;;18.67;17.67;;;;;8.38;100.00;100347.50;5091736;27;46362;-83
2023/01/19 11:28:01;;;;;;;;;23.67;18.00;;;;;8.37;100.00;100331.31;5113108;27;44781;-84
2023/01/19 11:30:27;;;;;;;;;30.50;27.50;;;;;8.22;100.00;100318.66;5123785;27;45308;-84
2023/01/19 11:32:53;;;;;;;;;27.67;24.67;;;;;8.32;100.00;100323.72;5112122;27;45584;-86
2023/01/19 11:35:33;;;;;;;;;40.00;34.00;;;;;8.41;100.00;100346.25;5110365;27;46324;-85